This is the latest recevied weather packets stored in our database for station/object W4ZHA. If no packets are shown the sender has not sent any weather packets the latest 10 day(s).
| Time | Temp. | Humidity | Pressure | Rain* | Wind** | Luminosity | Snow |
|---|---|---|---|---|---|---|---|
| 1787944304 | 32.78° C | 50% | 1017.2 hPa | 0 mm | - | 489 W/m² | - |
| 1787944000 | 32.22° C | 53% | 1017.2 hPa | 0 mm | - | 496 W/m² | - |
| 1787943695 | 31.67° C | 54% | 1017.6 hPa | 0 mm | - | 502 W/m² | - |
| 1787943390 | 32.22° C | 49% | 1017.2 hPa | 0 mm | - | 497 W/m² | - |
| 1787943085 | 31.11° C | 54% | 1017.6 hPa | 0 mm | - | 484 W/m² | - |
| 1787942780 | 30.56° C | 56% | 1017.6 hPa | 0 mm | - | 473 W/m² | - |
| 1787942480 | 30.56° C | 56% | 1017.6 hPa | 0 mm | - | 111 W/m² | - |
| 1787942174 | 30.56° C | 55% | 1017.6 hPa | 0 mm | - | 119 W/m² | - |
| 1787941870 | 31.11° C | 54% | 1017.6 hPa | 0 mm | - | 126 W/m² | - |
| 1787941569 | 32.22° C | 53% | 1017.6 hPa | 0 mm | - | 331 W/m² | - |
| 1787941258 | 31.11° C | 54% | 1017.6 hPa | 0 mm | - | 509 W/m² | - |
| 1787940957 | 30.56° C | 55% | 1017.6 hPa | 0 mm | - | 488 W/m² | - |
| 1787940656 | 31.67° C | 53% | 1017.9 hPa | 0 mm | - | 262 W/m² | - |
| 1787940355 | 32.22° C | 53% | 1017.6 hPa | 0 mm | - | 482 W/m² | - |
| 1787940049 | 31.11° C | 54% | 1017.6 hPa | 0 mm | - | 452 W/m² | - |
| 1787939749 | 31.11° C | 54% | 1017.6 hPa | 0 mm | - | 233 W/m² | - |
| 1787939443 | 31.11° C | 54% | 1017.6 hPa | 0 mm | - | 503 W/m² | - |
| 1787939139 | 31.67° C | 54% | 1017.9 hPa | 0 mm | - | 192 W/m² | - |
| 1787938838 | 31.11° C | 55% | 1017.9 hPa | 0 mm | - | 340 W/m² | - |
| 1787938532 | 30.56° C | 56% | 1018.3 hPa | 0 mm | - | 523 W/m² | - |
| 1787938229 | 31.11° C | 55% | 1017.9 hPa | 0 mm | - | 168 W/m² | - |
| 1787937928 | 31.11° C | 55% | 1017.9 hPa | 0 mm | - | 493 W/m² | - |
| 1787937624 | 31.11° C | 55% | 1017.9 hPa | 0 mm | - | 518 W/m² | - |
| 1787937320 | 30.56° C | 55% | 1017.9 hPa | 0 mm | - | 518 W/m² | - |
| 1787937016 | 31.67° C | 54% | 1017.9 hPa | 0 mm | - | 497 W/m² | - |
* Rain latest hour (hover to see other rain measurements)
** Current wind speed in m/s (hover to see current wind gust speed)